Time;durP1;ratioP1;P1;durP2;ratioP2;P2;SDS_P1;SDS_P2;PMS_P1;PMS_P2;Temp;Humidity;BMP_temperature;BMP_pressure;BME280_temperature;BME280_humidity;BME280_pressure;Samples;Min_cycle;Max_cycle;Signal;HPM_P1;HPM_P2
2023/04/09 00:01:07;;;;;;;;;;;;;;;21.86;27.31;98371.59;5077398;28;1028;-74
2023/04/09 00:03:32;;;;;;;;;;;;;;;21.59;27.45;98380.28;5061025;28;1204;-74
2023/04/09 00:05:58;;;;;;;;;;;;;;;22.39;26.77;98375.31;5060234;28;990;-75
2023/04/09 00:08:24;;;;;;;;;;;;;;;22.39;27.02;98380.19;5077702;28;992;-74
2023/04/09 00:10:50;;;;;;;;;;;;;;;22.15;27.24;98383.16;5077011;28;1293;-74
2023/04/09 00:13:16;;;;;;;;;;;;;;;22.05;26.96;98390.63;5094433;28;1910;-74
2023/04/09 00:15:42;;;;;;;;;;;;;;;21.82;27.39;98394.38;5060911;28;1204;-73
2023/04/09 00:18:08;;;;;;;;;;;;;;;21.61;27.41;98397.66;5076993;28;1003;-74
2023/04/09 00:20:33;;;;;;;;;;;;;;;21.66;27.64;98391.47;5077401;28;986;-74
2023/04/09 00:22:59;;;;;;;;;;;;;;;21.58;28.17;98395.66;5041146;28;1332;-74
2023/04/09 00:25:25;;;;;;;;;;;;;;;21.65;27.82;98395.50;5053899;28;998;-74
2023/04/09 00:27:50;;;;;;;;;;;;;;;21.92;27.45;98400.25;5053688;28;1211;-74
2023/04/09 00:30:16;;;;;;;;;;;;;;;22.13;27.27;98396.97;5053700;28;949;-73
2023/04/09 00:32:42;;;;;;;;;;;;;;;22.11;27.41;98393.75;5053545;28;1263;-75
2023/04/09 00:35:08;;;;;;;;;;;;;;;22.24;26.94;98391.06;5036659;28;1918;-75
2023/04/09 00:37:33;;;;;;;;;;;;;;;21.82;27.46;98400.03;5070266;28;1022;-73
2023/04/09 00:39:59;;;;;;;;;;;;;;;21.62;27.73;98401.28;5070525;28;1040;-74
2023/04/09 00:42:25;;;;;;;;;;;;;;;21.78;27.24;98399.31;5053507;28;1133;-74
2023/04/09 00:44:50;;;;;;;;;;;;;;;21.97;27.65;98399.72;5053248;28;922;-74
2023/04/09 00:47:16;;;;;;;;;;;;;;;22.13;27.50;98385.63;5036917;28;969;-74
2023/04/09 00:49:43;;;;;;;;;;;;;;;22.04;27.50;98388.22;5053397;28;1114;-74
2023/04/09 00:52:09;;;;;;;;;;;;;;;21.89;27.28;98382.06;5070333;28;940;-74
2023/04/09 00:54:34;;;;;;;;;;;;;;;21.65;27.82;98372.88;5053257;28;1977;-74
2023/04/09 00:57:00;;;;;;;;;;;;;;;21.31;27.94;98376.78;5053572;28;1070;-74
2023/04/09 00:59:26;;;;;;;;;;;;;;;21.57;28.03;98368.59;5055309;28;1115;-74
2023/04/09 01:01:51;;;;;;;;;;;;;;;22.05;27.50;98367.16;5073583;28;1207;-74
2023/04/09 01:04:17;;;;;;;;;;;;;;;22.16;27.38;98366.94;5056755;28;1244;-74
2023/04/09 01:06:42;;;;;;;;;;;;;;;22.30;27.19;98364.56;5056638;28;1157;-74
2023/04/09 01:09:20;;;;;;;;;;;;;;;22.26;27.07;98372.34;5073401;28;1211;-74
2023/04/09 01:12:01;;;;;;;;;;;;;;;21.95;27.27;98368.19;5073097;28;1179;-74
2023/04/09 01:14:33;;;;;;;;;;;;;;;21.66;27.83;98374.47;5073262;28;1882;-74
2023/04/09 01:17:11;;;;;;;;;;;;;;;22.44;26.82;98371.16;5093483;28;1137;-73
2023/04/09 01:19:41;;;;;;;;;;;;;;;22.46;26.67;98358.09;5076722;28;1142;-74
2023/04/09 01:22:09;;;;;;;;;;;;;;;22.29;26.78;98371.47;5076587;28;1589;-73
2023/04/09 01:24:41;;;;;;;;;;;;;;;21.77;27.42;98363.72;5076252;28;1036;-74
2023/04/09 01:27:09;;;;;;;;;;;;;;;21.64;27.36;98362.78;5110289;28;1456;-74
2023/04/09 01:29:58;;;;;;;;;;;;;;;21.89;27.48;98364.28;5073411;28;1199;-74
2023/04/09 01:32:23;;;;;;;;;;;;;;;22.27;27.02;98364.63;5060397;28;1242;-75
2023/04/09 01:34:49;;;;;;;;;;;;;;;22.04;27.41;98359.91;5060378;28;1984;-74
2023/04/09 01:37:14;;;;;;;;;;;;;;;22.07;27.46;98359.00;5060131;28;1067;-74
2023/04/09 01:39:40;;;;;;;;;;;;;;;21.79;27.52;98361.22;5060379;28;1090;-74
2023/04/09 01:42:09;;;;;;;;;;;;;;;21.60;27.82;98356.38;5060371;28;927;-73
2023/04/09 01:44:36;;;;;;;;;;;;;;;21.59;28.11;98363.28;5060869;28;1125;-74
2023/04/09 01:47:02;;;;;;;;;;;;;;;21.68;27.99;98360.66;5058441;28;1248;-73
2023/04/09 01:49:28;;;;;;;;;;;;;;;21.60;27.91;98364.88;5091442;28;1011;-74
2023/04/09 01:51:53;;;;;;;;;;;;;;;21.55;28.21;98368.22;5057904;28;1157;-73
2023/04/09 01:54:19;;;;;;;;;;;;;;;21.76;27.70;98359.28;5093113;28;1985;-74
2023/04/09 01:56:45;;;;;;;;;;;;;;;21.60;28.39;98359.22;5059895;28;1146;-73
2023/04/09 01:59:11;;;;;;;;;;;;;;;21.74;28.05;98361.75;5059956;28;1723;-74
2023/04/09 02:01:37;;;;;;;;;;;;;;;22.24;27.46;98357.03;5059923;28;1348;-74
2023/04/09 02:04:04;;;;;;;;;;;;;;;22.17;27.23;98351.53;5076421;28;1161;-75
2023/04/09 02:06:32;;;;;;;;;;;;;;;21.98;27.35;98358.81;5076595;28;916;-75
2023/04/09 02:08:59;;;;;;;;;;;;;;;21.61;27.86;98360.84;5076572;28;1149;-74
2023/04/09 02:11:25;;;;;;;;;;;;;;;21.49;28.21;98358.63;5076452;28;1226;-74
2023/04/09 02:13:50;;;;;;;;;;;;;;;21.72;27.82;98355.72;5059689;28;1910;-74
2023/04/09 02:16:16;;;;;;;;;;;;;;;22.49;26.98;98356.44;5059852;28;1038;-73
2023/04/09 02:18:41;;;;;;;;;;;;;;;22.40;26.90;98357.06;5059725;28;1191;-73
2023/04/09 02:21:07;;;;;;;;;;;;;;;22.17;27.26;98351.53;5055602;28;1260;-74
2023/04/09 02:23:33;;;;;;;;;;;;;;;22.12;27.58;98354.88;5055616;28;1043;-74
2023/04/09 02:26:00;;;;;;;;;;;;;;;21.83;27.92;98355.50;5039613;28;1129;-73
2023/04/09 02:28:25;;;;;;;;;;;;;;;21.60;28.03;98364.88;5039296;28;1083;-75
2023/04/09 02:30:51;;;;;;;;;;;;;;;21.48;28.07;98357.84;5039768;28;1031;-74
2023/04/09 02:33:16;;;;;;;;;;;;;;;21.95;27.96;98363.31;5039128;28;1914;-74
2023/04/09 02:35:42;;;;;;;;;;;;;;;22.17;27.55;98357.97;5039328;28;1611;-74
2023/04/09 02:38:12;;;;;;;;;;;;;;;22.36;26.98;98359.16;5039110;28;1005;-74
2023/04/09 02:40:38;;;;;;;;;;;;;;;21.85;27.54;98359.47;5039759;28;1040;-74
2023/04/09 02:43:04;;;;;;;;;;;;;;;21.59;28.12;98354.78;5039076;28;1000;-73
2023/04/09 02:45:30;;;;;;;;;;;;;;;21.20;28.68;98355.56;5038739;28;982;-74
2023/04/09 02:47:55;;;;;;;;;;;;;;;22.09;27.42;98353.69;5022534;28;1122;-74
2023/04/09 02:50:21;;;;;;;;;;;;;;;21.88;27.86;98362.69;5039000;28;1138;-74
2023/04/09 02:52:50;;;;;;;;;;;;;;;22.02;27.74;98348.19;5071867;28;1094;-74
2023/04/09 02:55:15;;;;;;;;;;;;;;;21.87;27.48;98350.56;5058699;28;1910;-74
2023/04/09 02:57:41;;;;;;;;;;;;;;;21.87;27.29;98338.44;5058659;28;1125;-74
2023/04/09 03:00:07;;;;;;;;;;;;;;;21.52;28.06;98346.47;5058760;28;1102;-74
2023/04/09 03:02:33;;;;;;;;;;;;;;;21.76;27.97;98350.81;5058583;28;1240;-74
2023/04/09 03:04:58;;;;;;;;;;;;;;;21.39;28.62;98348.31;5058849;28;1253;-76
2023/04/09 03:07:24;;;;;;;;;;;;;;;21.43;28.66;98340.56;5058729;28;1092;-76
2023/04/09 03:09:50;;;;;;;;;;;;;;;22.31;27.46;98345.53;5058487;28;1154;-74
2023/04/09 03:12:15;;;;;;;;;;;;;;;22.28;27.48;98341.53;5058501;28;1023;-74
2023/04/09 03:14:41;;;;;;;;;;;;;;;22.43;27.06;98347.63;5074817;28;1984;-74
2023/04/09 03:17:06;;;;;;;;;;;;;;;21.99;27.46;98341.38;5074884;28;1057;-74
2023/04/09 03:19:32;;;;;;;;;;;;;;;21.72;27.65;98350.06;5074841;28;1213;-73
2023/04/09 03:21:57;;;;;;;;;;;;;;;21.50;27.94;98346.06;5074953;28;1350;-74
2023/04/09 03:24:26;;;;;;;;;;;;;;;21.71;28.28;98359.81;5062800;28;1434;-73
2023/04/09 03:26:52;;;;;;;;;;;;;;;22.17;27.39;98346.66;5058383;28;1161;-74
2023/04/09 03:29:18;;;;;;;;;;;;;;;22.22;27.44;98360.28;5074754;28;1036;-75
2023/04/09 03:31:43;;;;;;;;;;;;;;;22.11;27.42;98354.06;5058402;28;1129;-74
2023/04/09 03:34:09;;;;;;;;;;;;;;;21.91;27.75;98356.13;5058403;28;1917;-73
2023/04/09 03:36:35;;;;;;;;;;;;;;;21.71;27.76;98354.16;5058274;28;1173;-73
2023/04/09 03:39:03;;;;;;;;;;;;;;;21.63;28.05;98355.53;5054315;28;1207;-73
2023/04/09 03:41:32;;;;;;;;;;;;;;;21.92;27.78;98346.41;5037901;28;1210;-75
2023/04/09 03:44:02;;;;;;;;;;;;;;;22.07;27.62;98350.50;5038217;28;1120;-74
2023/04/09 03:46:34;;;;;;;;;;;;;;;22.16;27.57;98359.22;5022241;28;1261;-74
2023/04/09 03:49:00;;;;;;;;;;;;;;;22.00;27.64;98353.50;5037975;28;1129;-74
2023/04/09 03:51:35;;;;;;;;;;;;;;;21.64;27.96;98359.94;5022692;28;1077;-74
2023/04/09 03:54:01;;;;;;;;;;;;;;;21.49;28.01;98350.16;5037365;28;1980;-74
2023/04/09 03:56:27;;;;;;;;;;;;;;;21.47;28.05;98363.94;5054134;28;984;-74
2023/04/09 03:58:53;;;;;;;;;;;;;;;22.36;27.42;98370.50;5054250;28;1379;-74
2023/04/09 04:01:23;;;;;;;;;;;;;;;22.28;27.32;98364.22;5070812;28;1058;-74
2023/04/09 04:03:56;;;;;;;;;;;;;;;22.27;27.42;98362.59;5038697;28;1257;-74
2023/04/09 04:06:24;;;;;;;;;;;;;;;21.84;27.71;98363.56;5070845;28;1449;-74
2023/04/09 04:09:25;;;;;;;;;;;;;;;21.88;27.05;98368.34;5038530;28;1580;-74
2023/04/09 04:11:57;;;;;;;;;;;;;;;21.77;27.51;98357.25;5037163;28;1058;-74
2023/04/09 04:14:28;;;;;;;;;;;;;;;21.95;27.84;98362.53;5037116;28;1913;-74
2023/04/09 04:17:03;;;;;;;;;;;;;;;22.02;27.75;98362.34;5014056;28;1464;-74
2023/04/09 04:19:30;;;;;;;;;;;;;;;22.28;27.55;98364.22;5014067;28;1121;-74
2023/04/09 04:21:56;;;;;;;;;;;;;;;22.19;27.15;98364.03;5014104;28;1211;-74
2023/04/09 04:24:22;;;;;;;;;;;;;;;21.71;27.80;98365.47;5013778;28;1517;-74
2023/04/09 04:26:48;;;;;;;;;;;;;;;21.54;27.91;98366.63;5013923;28;1309;-74
2023/04/09 04:29:16;;;;;;;;;;;;;;;21.83;28.05;98361.97;5014067;28;1251;-74
2023/04/09 04:31:51;;;;;;;;;;;;;;;22.03;27.58;98359.09;5014099;28;1127;-74
2023/04/09 04:34:19;;;;;;;;;;;;;;;22.12;27.74;98369.84;5013748;28;1914;-74
2023/04/09 04:36:52;;;;;;;;;;;;;;;22.15;27.36;98366.13;4993901;28;1552;-74
2023/04/09 04:39:18;;;;;;;;;;;;;;;21.86;27.54;98368.78;4994262;28;1194;-74
2023/04/09 04:41:51;;;;;;;;;;;;;;;21.51;27.61;98367.50;4994031;28;1384;-74
2023/04/09 04:44:22;;;;;;;;;;;;;;;21.99;27.73;98357.56;4959058;28;1321;-74
2023/04/09 04:46:54;;;;;;;;;;;;;;;22.12;27.32;98367.00;4955232;28;1488;-74
2023/04/09 04:49:20;;;;;;;;;;;;;;;22.07;27.32;98359.00;4955584;28;1124;-73
2023/04/09 04:51:46;;;;;;;;;;;;;;;21.92;27.74;98369.88;4957115;28;1601;-74
2023/04/09 04:54:14;;;;;;;;;;;;;;;21.60;27.67;98367.72;5013760;28;1980;-74
2023/04/09 04:56:46;;;;;;;;;;;;;;;21.52;27.65;98366.28;5013396;28;1284;-73
2023/04/09 04:59:30;;;;;;;;;;;;;;;21.77;27.49;98366.56;5013741;28;1238;-74
2023/04/09 05:02:01;;;;;;;;;;;;;;;22.11;27.57;98368.25;5013737;28;1133;-75
2023/04/09 05:04:31;;;;;;;;;;;;;;;22.26;27.22;98375.19;5013119;28;1212;-74
2023/04/09 05:06:57;;;;;;;;;;;;;;;22.03;27.85;98363.97;5024825;28;1121;-73
2023/04/09 05:09:24;;;;;;;;;;;;;;;21.70;27.87;98369.50;5080563;28;1127;-74
2023/04/09 05:11:58;;;;;;;;;;;;;;;21.78;27.67;98376.63;5065377;28;1269;-73
2023/04/09 05:14:25;;;;;;;;;;;;;;;21.60;27.96;98373.38;5080882;28;2476;-73
2023/04/09 05:16:51;;;;;;;;;;;;;;;22.28;27.51;98369.91;5081038;28;1184;-73
2023/04/09 05:19:20;;;;;;;;;;;;;;;22.32;27.18;98370.59;5080661;28;1508;-74
2023/04/09 05:21:46;;;;;;;;;;;;;;;22.40;27.00;98381.78;5064127;28;1034;-74
2023/04/09 05:24:13;;;;;;;;;;;;;;;21.74;27.71;98381.56;5080613;28;1197;-73
2023/04/09 05:26:39;;;;;;;;;;;;;;;21.50;27.86;98389.38;5080240;28;1000;-73
2023/04/09 05:29:05;;;;;;;;;;;;;;;21.41;28.31;98391.19;5063781;28;1254;-73
2023/04/09 05:31:31;;;;;;;;;;;;;;;21.53;27.85;98387.69;5080501;28;1161;-74
2023/04/09 05:34:03;;;;;;;;;;;;;;;21.53;28.06;98388.47;5080164;28;1910;-73
2023/04/09 05:36:45;;;;;;;;;;;;;;;21.68;28.27;98389.00;5082650;28;1098;-74
2023/04/09 05:39:11;;;;;;;;;;;;;;;21.93;27.96;98390.50;5079981;28;1276;-73
2023/04/09 05:41:37;;;;;;;;;;;;;;;22.06;27.40;98385.75;5058096;28;1275;-73
2023/04/09 05:44:38;;;;;;;;;;;;;;;21.85;27.75;98387.81;5056557;28;933;-73
2023/04/09 05:47:09;;;;;;;;;;;;;;;21.71;27.79;98399.47;5008813;28;1170;-73
2023/04/09 05:49:55;;;;;;;;;;;;;;;21.41;28.52;98391.19;5042565;28;1230;-73
2023/04/09 05:52:21;;;;;;;;;;;;;;;21.57;28.39;98402.56;5016722;28;1228;-73
2023/04/09 05:54:47;;;;;;;;;;;;;;;22.10;27.41;98403.47;5016637;28;1910;-74
2023/04/09 05:57:18;;;;;;;;;;;;;;;22.03;27.78;98400.81;5033603;28;1418;-74
2023/04/09 05:59:51;;;;;;;;;;;;;;;22.15;27.50;98397.31;5033306;28;1162;-73
2023/04/09 06:02:16;;;;;;;;;;;;;;;21.70;27.99;98386.50;5016726;28;1123;-73
2023/04/09 06:04:42;;;;;;;;;;;;;;;21.70;27.76;98392.16;5000030;28;1053;-73
2023/04/09 06:07:12;;;;;;;;;;;;;;;21.48;28.05;98391.81;5032296;28;1109;-73
2023/04/09 06:09:37;;;;;;;;;;;;;;;21.43;28.52;98391.53;5033283;28;1460;-73
2023/04/09 06:12:03;;;;;;;;;;;;;;;21.43;28.54;98400.03;5016622;28;959;-74
2023/04/09 06:14:31;;;;;;;;;;;;;;;22.11;27.68;98399.41;5033057;28;1914;-73
2023/04/09 06:16:57;;;;;;;;;;;;;;;22.33;27.24;98406.22;5012646;28;1236;-73
2023/04/09 06:19:23;;;;;;;;;;;;;;;21.91;27.74;98407.13;4980488;28;1069;-74
2023/04/09 06:21:49;;;;;;;;;;;;;;;21.60;28.17;98413.00;4993900;28;1226;-74
2023/04/09 06:24:14;;;;;;;;;;;;;;;21.66;27.92;98424.63;5011255;28;957;-73
2023/04/09 06:26:40;;;;;;;;;;;;;;;21.65;28.09;98428.69;4999834;28;1035;-73
2023/04/09 06:29:06;;;;;;;;;;;;;;;22.18;27.30;98427.63;5055866;28;1147;-73
2023/04/09 06:31:32;;;;;;;;;;;;;;;22.44;26.79;98422.19;5039278;28;1165;-74
2023/04/09 06:33:57;;;;;;;;;;;;;;;22.26;27.22;98433.91;5055756;28;1914;-74
2023/04/09 06:36:23;;;;;;;;;;;;;;;21.83;27.79;98424.28;5015648;28;1420;-74
2023/04/09 06:38:49;;;;;;;;;;;;;;;21.46;28.22;98444.47;4999859;28;1174;-73
2023/04/09 06:41:15;;;;;;;;;;;;;;;21.62;27.77;98435.25;5015986;28;1088;-73
2023/04/09 06:43:40;;;;;;;;;;;;;;;21.56;27.95;98437.78;5032459;28;908;-74
2023/04/09 06:46:07;;;;;;;;;;;;;;;22.10;27.78;98437.47;5015877;28;1232;-74
2023/04/09 06:48:33;;;;;;;;;;;;;;;22.36;27.11;98433.69;5060689;28;968;-73
2023/04/09 06:50:58;;;;;;;;;;;;;;;22.59;26.67;98434.78;5055348;28;1113;-74
2023/04/09 06:53:24;;;;;;;;;;;;;;;22.05;27.48;98435.16;5038991;28;1068;-74
2023/04/09 06:55:50;;;;;;;;;;;;;;;21.57;27.96;98428.06;5035100;28;1337;-73
2023/04/09 06:58:15;;;;;;;;;;;;;;;21.29;28.61;98435.81;5035550;28;1056;-74
2023/04/09 07:00:41;;;;;;;;;;;;;;;21.66;28.23;98431.13;5002377;28;978;-73
2023/04/09 07:03:07;;;;;;;;;;;;;;;22.13;27.57;98419.63;5035366;28;901;-73
2023/04/09 07:05:33;;;;;;;;;;;;;;;22.17;27.29;98419.53;5014889;28;980;-75
2023/04/09 07:07:59;;;;;;;;;;;;;;;22.10;27.32;98420.47;5010664;28;968;-78
2023/04/09 07:10:24;;;;;;;;;;;;;;;21.65;28.04;98411.72;4999049;28;1396;-74
2023/04/09 07:12:50;;;;;;;;;;;;;;;21.44;27.92;98418.59;4996096;28;1015;-73
2023/04/09 07:15:16;;;;;;;;;;;;;;;21.57;27.83;98422.41;4995450;28;1918;-73
2023/04/09 07:17:41;;;;;;;;;;;;;;;21.82;27.63;98417.03;4995996;28;979;-73
2023/04/09 07:20:07;;;;;;;;;;;;;;;22.13;27.64;98424.50;4995848;28;1229;-74
2023/04/09 07:22:33;;;;;;;;;;;;;;;22.09;27.66;98422.50;5010035;28;1118;-73
2023/04/09 07:24:58;;;;;;;;;;;;;;;21.97;27.85;98423.19;4998844;28;1121;-73
2023/04/09 07:27:25;;;;;;;;;;;;;;;21.97;27.33;98419.56;5012924;28;1249;-73
2023/04/09 07:29:52;;;;;;;;;;;;;;;21.50;27.94;98422.53;5034327;28;932;-74
2023/04/09 07:32:18;;;;;;;;;;;;;;;21.47;27.98;98424.19;5034802;28;973;-73
2023/04/09 07:34:44;;;;;;;;;;;;;;;21.70;27.72;98419.69;5018498;28;1899;-73
2023/04/09 07:37:10;;;;;;;;;;;;;;;22.30;26.98;98434.66;5034510;28;987;-74
2023/04/09 07:39:35;;;;;;;;;;;;;;;22.18;27.21;98427.63;5034515;28;990;-73
2023/04/09 07:42:01;;;;;;;;;;;;;;;22.18;27.12;98421.16;5034678;28;1014;-73
2023/04/09 07:44:28;;;;;;;;;;;;;;;21.75;27.59;98433.34;5018424;28;1056;-73
2023/04/09 07:46:53;;;;;;;;;;;;;;;21.64;27.77;98427.91;5017712;28;1396;-74
2023/04/09 07:49:20;;;;;;;;;;;;;;;21.55;27.47;98454.00;5036799;28;987;-74
2023/04/09 07:51:45;;;;;;;;;;;;;;;21.81;27.32;98432.44;5089393;28;980;-74
2023/04/09 07:54:11;;;;;;;;;;;;;;;22.27;27.06;98435.50;5055770;28;1957;-74
2023/04/09 07:56:36;;;;;;;;;;;;;;;22.12;27.19;98426.53;5055688;28;1221;-74
2023/04/09 07:59:02;;;;;;;;;;;;;;;21.87;27.55;98429.09;5094238;28;963;-75
2023/04/09 08:01:28;;;;;;;;;;;;;;;21.62;27.89;98436.06;5060978;28;1352;-74
2023/04/09 08:03:53;;;;;;;;;;;;;;;21.42;27.90;98435.22;5077739;28;967;-74
2023/04/09 08:06:19;;;;;;;;;;;;;;;21.51;27.95;98432.63;5061053;28;1118;-74
2023/04/09 08:08:45;;;;;;;;;;;;;;;21.97;27.31;98428.84;5076982;28;1090;-74
2023/04/09 08:11:10;;;;;;;;;;;;;;;22.00;27.26;98424.34;5077329;28;1248;-74
2023/04/09 08:13:36;;;;;;;;;;;;;;;21.83;27.58;98429.16;5077075;28;1989;-74
2023/04/09 08:16:03;;;;;;;;;;;;;;;21.99;27.15;98420.72;5077921;28;1046;-74
2023/04/09 08:18:29;;;;;;;;;;;;;;;21.68;27.42;98420.16;5060794;28;1148;-74
2023/04/09 08:20:55;;;;;;;;;;;;;;;21.17;27.94;98433.63;5077145;28;1026;-74
2023/04/09 08:23:21;;;;;;;;;;;;;;;21.21;27.89;98425.06;5094147;28;1070;-73
2023/04/09 08:25:46;;;;;;;;;;;;;;;21.83;27.44;98418.63;5073454;28;1169;-74
2023/04/09 08:28:12;;;;;;;;;;;;;;;21.84;27.38;98420.22;5057056;28;997;-74
2023/04/09 08:30:37;;;;;;;;;;;;;;;22.16;27.05;98430.09;5042077;28;1207;-74
2023/04/09 08:33:03;;;;;;;;;;;;;;;22.19;27.04;98431.25;5070380;28;971;-74
2023/04/09 08:35:29;;;;;;;;;;;;;;;22.07;27.26;98427.84;5036861;28;1898;-74
2023/04/09 08:37:55;;;;;;;;;;;;;;;21.78;27.43;98427.63;5053188;28;932;-75
2023/04/09 08:40:21;;;;;;;;;;;;;;;21.81;27.35;98432.44;5070387;28;1564;-73
2023/04/09 08:42:46;;;;;;;;;;;;;;;21.68;27.87;98431.47;5053555;28;1205;-74
2023/04/09 08:45:12;;;;;;;;;;;;;;;22.25;27.54;98435.97;5073263;28;1060;-74
2023/04/09 08:47:39;;;;;;;;;;;;;;;22.43;26.98;98434.75;5056661;28;912;-74
2023/04/09 08:50:05;;;;;;;;;;;;;;;22.30;27.07;98435.44;5057035;28;1015;-73
2023/04/09 08:52:31;;;;;;;;;;;;;;;21.64;27.95;98425.06;5040120;28;1121;-74
2023/04/09 08:54:56;;;;;;;;;;;;;;;21.43;28.00;98434.00;5040148;28;1983;-74
2023/04/09 08:57:22;;;;;;;;;;;;;;;21.40;28.06;98429.19;5073333;28;973;-74
2023/04/09 08:59:47;;;;;;;;;;;;;;;21.71;28.05;98427.78;5056669;28;1246;-73
2023/04/09 09:02:13;;;;;;;;;;;;;;;21.90;27.72;98428.19;5041786;28;1065;-74
2023/04/09 09:04:46;;;;;;;;;;;;;;;21.97;27.53;98422.41;5056501;28;1259;-74
2023/04/09 09:07:11;;;;;;;;;;;;;;;22.06;27.27;98431.09;5033361;28;1073;-74
2023/04/09 09:09:56;;;;;;;;;;;;;;;21.87;27.74;98420.59;5016434;28;1209;-73
2023/04/09 09:12:31;;;;;;;;;;;;;;;21.74;27.70;98421.22;5013458;28;974;-74
2023/04/09 09:14:57;;;;;;;;;;;;;;;21.30;28.07;98428.97;5013144;28;1973;-73
2023/04/09 09:17:23;;;;;;;;;;;;;;;21.50;28.17;98431.84;4994201;28;973;-74
2023/04/09 09:19:48;;;;;;;;;;;;;;;22.19;27.21;98429.22;4994057;28;973;-73
2023/04/09 09:22:14;;;;;;;;;;;;;;;22.16;27.04;98435.75;4961716;28;1068;-74
2023/04/09 09:24:49;;;;;;;;;;;;;;;21.75;27.75;98428.47;4993751;28;1017;-74
2023/04/09 09:27:35;;;;;;;;;;;;;;;21.90;27.21;98428.19;4993567;28;942;-74
2023/04/09 09:30:01;;;;;;;;;;;;;;;21.71;27.33;98427.78;4993347;28;949;-74
2023/04/09 09:32:27;;;;;;;;;;;;;;;21.72;27.20;98428.56;4993859;28;1004;-74
2023/04/09 09:35:00;;;;;;;;;;;;;;;21.36;27.92;98434.94;4996641;28;1971;-75
2023/04/09 09:37:26;;;;;;;;;;;;;;;21.61;28.00;98425.97;5020337;28;1011;-74
2023/04/09 09:39:52;;;;;;;;;;;;;;;21.81;27.41;98432.44;5019955;28;1119;-75
2023/04/09 09:42:18;;;;;;;;;;;;;;;22.09;27.22;98424.56;5019678;28;1130;-74
2023/04/09 09:44:44;;;;;;;;;;;;;;;21.96;27.11;98426.44;5036116;28;948;-74
2023/04/09 09:47:09;;;;;;;;;;;;;;;21.77;27.25;98417.53;5033060;28;988;-74
2023/04/09 09:49:35;;;;;;;;;;;;;;;21.26;27.87;98431.03;5032818;28;1259;-74
2023/04/09 09:52:01;;;;;;;;;;;;;;;21.41;27.65;98430.81;5035076;28;1007;-74
2023/04/09 09:54:27;;;;;;;;;;;;;;;21.75;27.36;98422.81;5072658;28;1898;-74
2023/04/09 09:56:54;;;;;;;;;;;;;;;22.01;26.81;98417.44;5056400;28;1541;-74
2023/04/09 09:59:20;;;;;;;;;;;;;;;22.19;26.50;98412.22;5073198;28;1427;-73
2023/04/09 10:01:46;;;;;;;;;;;;;;;21.87;26.87;98406.44;5056251;28;1004;-74
2023/04/09 10:04:13;;;;;;;;;;;;;;;21.79;26.98;98400.88;5039992;28;1161;-74
2023/04/09 10:06:40;;;;;;;;;;;;;;;21.38;27.39;98397.69;5039506;28;970;-74
2023/04/09 10:09:06;;;;;;;;;;;;;;;21.35;27.79;98402.19;5039851;28;1299;-73
2023/04/09 10:11:32;;;;;;;;;;;;;;;21.83;27.30;98390.28;5039659;28;1343;-74
2023/04/09 10:13:58;;;;;;;;;;;;;;;21.93;26.90;98399.00;5039712;28;1910;-74
2023/04/09 10:16:24;;;;;;;;;;;;;;;21.92;27.04;98394.59;5035958;28;2090;-74
2023/04/09 10:18:50;;;;;;;;;;;;;;;21.79;27.01;98395.22;5065042;28;1093;-74
2023/04/09 10:21:22;;;;;;;;;;;;;;;21.36;27.65;98394.50;5053021;28;1141;-74
2023/04/09 10:23:49;;;;;;;;;;;;;;;21.36;27.65;98400.16;5035917;28;977;-74
2023/04/09 10:26:15;;;;;;;;;;;;;;;21.66;27.38;98397.13;5052686;28;1028;-73
2023/04/09 10:28:41;;;;;;;;;;;;;;;21.95;26.82;98390.84;5052528;28;1677;-73
2023/04/09 10:31:07;;;;;;;;;;;;;;;21.82;26.95;98400.03;5055962;28;1345;-74
2023/04/09 10:33:33;;;;;;;;;;;;;;;21.86;27.22;98391.44;5072726;28;978;-74
2023/04/09 10:35:59;;;;;;;;;;;;;;;21.99;26.83;98386.72;5072388;28;1921;-74
2023/04/09 10:38:49;;;;;;;;;;;;;;;21.79;26.79;98383.91;5039290;28;1072;-75
2023/04/09 10:41:21;;;;;;;;;;;;;;;21.83;26.66;98390.28;5019405;28;1682;-74
2023/04/09 10:43:47;;;;;;;;;;;;;;;21.70;27.02;98386.50;5019037;28;1042;-74
2023/04/09 10:46:31;;;;;;;;;;;;;;;21.51;27.26;98395.81;5019098;28;1016;-74
2023/04/09 10:49:17;;;;;;;;;;;;;;;21.67;27.22;98387.41;5021498;28;1045;-74
2023/04/09 10:51:52;;;;;;;;;;;;;;;21.91;27.07;98370.28;5055315;28;1517;-74
2023/04/09 10:54:33;;;;;;;;;;;;;;;21.93;26.70;98370.66;5022758;28;1898;-74
2023/04/09 10:57:10;;;;;;;;;;;;;;;21.98;26.91;98367.31;5055687;28;985;-74
2023/04/09 10:59:36;;;;;;;;;;;;;;;21.84;27.14;98372.06;5038874;28;1259;-74
2023/04/09 11:02:02;;;;;;;;;;;;;;;21.66;27.26;98362.31;5022039;28;949;-74
2023/04/09 11:04:34;;;;;;;;;;;;;;;21.60;27.11;98370.53;5037879;28;1123;-74
2023/04/09 11:07:00;;;;;;;;;;;;;;;21.66;27.03;98368.81;5022443;28;1106;-73
2023/04/09 11:09:26;;;;;;;;;;;;;;;21.82;26.78;98371.69;5055415;28;1240;-74
2023/04/09 11:11:52;;;;;;;;;;;;;;;21.98;26.69;98362.44;5022145;28;1497;-73
2023/04/09 11:14:20;;;;;;;;;;;;;;;22.12;26.67;98355.66;5022353;28;2023;-74
2023/04/09 11:16:49;;;;;;;;;;;;;;;21.75;26.77;98354.84;5055032;28;1047;-74
2023/04/09 11:19:14;;;;;;;;;;;;;;;21.53;26.99;98354.50;5057212;28;935;-74
2023/04/09 11:21:46;;;;;;;;;;;;;;;21.66;26.99;98354.66;5089962;28;1158;-74
2023/04/09 11:24:11;;;;;;;;;;;;;;;21.84;27.11;98352.22;5057129;28;905;-74
2023/04/09 11:26:37;;;;;;;;;;;;;;;21.87;26.80;98339.22;5055834;28;1000;-74
2023/04/09 11:29:09;;;;;;;;;;;;;;;22.03;26.57;98335.63;5056215;28;1133;-74
2023/04/09 11:31:34;;;;;;;;;;;;;;;21.94;26.65;98329.75;5089328;28;1068;-74
2023/04/09 11:34:00;;;;;;;;;;;;;;;22.08;26.24;98326.59;5089429;28;1906;-76
2023/04/09 11:36:26;;;;;;;;;;;;;;;21.94;26.49;98321.25;5057250;28;1239;-73
2023/04/09 11:38:53;;;;;;;;;;;;;;;21.63;27.05;98318.72;5089048;28;965;-74
2023/04/09 11:41:35;;;;;;;;;;;;;;;21.51;27.34;98322.22;5088773;28;948;-74
2023/04/09 11:44:02;;;;;;;;;;;;;;;21.91;26.80;98317.25;5089311;28;962;-74
2023/04/09 11:46:27;;;;;;;;;;;;;;;22.01;26.84;98315.44;5072214;28;1301;-74
2023/04/09 11:48:53;;;;;;;;;;;;;;;22.05;26.49;98316.94;5089289;28;845;-73
2023/04/09 11:51:19;;;;;;;;;;;;;;;21.95;26.50;98317.97;5088939;28;1196;-74
2023/04/09 11:53:44;;;;;;;;;;;;;;;21.73;26.71;98300.69;5088813;28;1967;-75
2023/04/09 11:56:10;;;;;;;;;;;;;;;21.45;27.30;98306.94;5057000;28;882;-74
2023/04/09 11:58:36;;;;;;;;;;;;;;;21.45;27.30;98301.28;5089038;28;1146;-74
2023/04/09 12:01:02;;;;;;;;;;;;;;;22.02;26.69;98311.34;5055573;28;1109;-74
2023/04/09 12:03:28;;;;;;;;;;;;;;;22.09;26.37;98305.53;5094180;28;1030;-74
2023/04/09 12:05:54;;;;;;;;;;;;;;;22.09;26.73;98299.88;5060965;28;1075;-74
2023/04/09 12:08:22;;;;;;;;;;;;;;;21.87;26.85;98310.09;5077107;28;1039;-74
2023/04/09 12:10:47;;;;;;;;;;;;;;;21.72;26.77;98293.44;5077401;28;1227;-73
2023/04/09 12:13:15;;;;;;;;;;;;;;;21.62;26.74;98300.13;5094027;28;942;-74
2023/04/09 12:15:42;;;;;;;;;;;;;;;21.98;26.70;98310.66;5076968;28;1909;-74
2023/04/09 12:18:08;;;;;;;;;;;;;;;22.07;26.52;98290.97;5060938;28;1049;-74
2023/04/09 12:20:35;;;;;;;;;;;;;;;21.92;26.57;98295.41;5060605;28;1121;-73
2023/04/09 12:23:02;;;;;;;;;;;;;;;21.96;26.47;98293.28;5093866;28;1204;-74
2023/04/09 12:25:28;;;;;;;;;;;;;;;21.90;26.40;98283.72;5077563;28;948;-74
2023/04/09 12:27:54;;;;;;;;;;;;;;;21.81;26.69;98282.31;5077325;28;962;-74
2023/04/09 12:30:20;;;;;;;;;;;;;;;21.65;26.89;98287.91;5077334;28;933;-73
2023/04/09 12:32:45;;;;;;;;;;;;;;;21.83;26.90;98273.34;5060343;28;939;-74
2023/04/09 12:35:12;;;;;;;;;;;;;;;22.13;26.29;98288.47;5041683;28;1967;-74
2023/04/09 12:37:37;;;;;;;;;;;;;;;21.96;26.57;98290.44;5093475;28;1069;-74
2023/04/09 12:40:03;;;;;;;;;;;;;;;21.84;26.53;98280.59;5076791;28;951;-73
2023/04/09 12:42:29;;;;;;;;;;;;;;;21.51;27.38;98285.41;5093979;28;1084;-74
2023/04/09 12:44:54;;;;;;;;;;;;;;;21.46;27.15;98274.59;5076814;28;963;-74
2023/04/09 12:47:20;;;;;;;;;;;;;;;21.41;27.51;98283.59;5093877;28;936;-73
2023/04/09 12:49:45;;;;;;;;;;;;;;;21.75;27.14;98286.88;5093824;28;955;-74
2023/04/09 12:52:11;;;;;;;;;;;;;;;22.00;26.72;98274.97;5076799;28;1119;-73
2023/04/09 12:54:38;;;;;;;;;;;;;;;22.01;26.65;98275.75;5076826;28;1977;-73
2023/04/09 12:57:04;;;;;;;;;;;;;;;22.06;26.39;98272.41;5094059;28;909;-74
2023/04/09 12:59:30;;;;;;;;;;;;;;;21.68;27.03;98264.38;5076829;28;1674;-74
2023/04/09 13:01:55;;;;;;;;;;;;;;;21.76;26.56;98270.66;5076972;28;974;-74